Main page
Satellite images Climate Cyclones Lightning AirportsFAQ Languages Contact Newsletter About
Weather : Europe Africa North America South America Asia Australia-Oceania Others

ho-chi-minh-vn, Ho Chi Minh City, Tan Son Nhat International Airport

latitude: , longitude: Vietnam, elevation: 10-49N m


METAR: VVTS 240530Z 05017G35KT 010V100 6000 -TSRA BKN010 SCT013CB 24/24 Q1007 WS ALL RWY BECMG TL0545 04015G28KT 5000 TSRA RMK CB OVER RWY